Latest Coastal Weather Observations for Ulladulla

IDN60701

Issued at 2:01 am EST Tuesday 7 July 2015 (issued every 10 minutes, with the page automatically refreshed every 10 minutes)

About coastal observations | Map of coastal stations | Coastal observations for NSW | Marine services | Other Formats
Station Details ID: 069138 Name: ULLADULLA AWS Lat: -35.36 Lon: 150.48 Height: 35.7 m
Data from the previous 72 hours. | See also: Recent months at Ulladulla
Date/Time
EST
Temp

°C
Wind Pressure Rain
since 9am
mm
Weather Cloud Vis
km
Sea
Height
m
Swell
Dir
 
Speed
knots
Gust
knots
hPa Trend Height
m
Period
s
Dir
07/02:00am 9.8 W 5 8 1015.9 - 0.0 - - - - - - -
07/01:30am 9.8 WNW 5 7 1015.7 - 0.0 - - - - - - -
07/01:00am 9.9 WNW 6 9 1015.4 - 0.0 - - - - - - -
07/12:30am 10.1 WNW 6 9 1015.3 - 0.0 - - - - - - -
07/12:00am 10.5 WNW 7 11 1015.4 - 0.0 - - - - - - -
 
Date/Time
EST
Temp

°C
Wind Pressure Rain
since 9am
mm
Weather Cloud Vis
km
Sea
Height
m
Swell
Dir
 
Speed
knots
Gust
knots
hPa Trend Height
m
Period
s
Dir
06/11:30pm 10.6 W 5 9 1015.5 - 0.0 - - - - - - -
06/11:00pm 10.8 WNW 6 9 1015.6 - 0.0 - - - - - - -
06/10:30pm 10.7 WNW 6 11 1015.6 - 0.0 - - - - - - -
06/10:00pm 10.9 WNW 6 11 1015.5 - 0.0 - - - - - - -
06/09:30pm 11.0 WSW 5 9 1015.4 - 0.0 - - - - - - -
06/09:00pm 10.9 WSW 6 10 1015.6 - 0.0 - - - - - - -
06/08:30pm 11.2 WNW 7 11 1014.9 - 0.0 - - - - - - -
06/08:00pm 11.6 WNW 7 13 1014.7 - 0.0 - - - - - - -
06/07:30pm 11.7 WNW 7 10 1014.7 - 0.0 - - - - - - -
06/07:00pm 11.9 WNW 6 10 1014.7 - 0.0 - - - - - - -
06/06:30pm 11.9 WNW 5 8 1014.5 - 0.0 - - - - - - -
06/06:00pm 12.0 WNW 3 5 1014.3 - 0.0 - - - - - - -
06/05:30pm 11.4 WSW 4 5 1014.1 - 0.0 - - - - - - -
06/05:00pm 12.5 WSW 3 5 1013.9 - 0.0 - - - - - - -
06/04:30pm 14.1 SSW 7 9 1013.7 - 0.0 - - - - - - -
06/04:00pm 13.7 SW 4 6 1013.6 - 0.0 - - - - - - -
06/03:30pm 14.3 SW 5 8 1013.5 - 0.0 - - - - - - -
06/03:00pm 14.6 SSW 5 7 1013.3 - 0.0 - - - - - - -
06/02:30pm 15.7 SW 4 6 1013.1 - 0.0 - - - - - - -
06/02:00pm 15.7 SW 4 7 1012.8 - 0.0 - - - - - - -
06/01:30pm 15.9 WSW 5 11 1012.9 - 0.0 - - - - - - -
06/01:00pm 15.8 WSW 7 11 1013.1 - 0.0 - - - - - - -
06/12:30pm 15.2 WSW 7 13 1013.4 - 0.0 - - - - - - -
06/12:00pm 15.5 WSW 7 10 1013.6 - 0.0 - - - - - - -
06/11:30am 15.1 W 6 9 1014.1 - 0.0 - - - - - - -
06/11:00am 15.0 W 7 12 1014.5 - 0.0 - - - - - - -
06/10:30am 14.0 W 7 14 1014.6 - 0.0 - - - - - - -
06/10:00am 13.2 W 8 16 1014.6 - 0.0 - - - - - - -
06/09:30am 12.7 W 7 12 1014.7 - 0.0 - - - - - - -
06/09:00am 12.1 WNW 6 9 1014.8 - 0.0 - - - - - - -
06/08:30am 11.2 WNW 5 9 1014.6 - 0.0 - - - - - - -
06/08:00am 10.3 WNW 6 10 1014.5 - 0.0 - - - - - - -
06/07:30am 9.3 WNW 6 11 1014.5 - 0.0 - - - - - - -
06/07:00am 8.9 WNW 6 13 1014.4 - 0.0 - - - - - - -
06/06:30am 9.2 W 7 12 1014.4 - 0.0 - - - - - - -
06/06:00am 9.2 WNW 8 13 1014.3 - 0.0 - - - - - - -
06/05:30am 9.8 WNW 9 13 1014.3 - 0.0 - - - - - - -
06/05:00am 9.6 WNW 7 12 1014.4 - 0.0 - - - - - - -
06/04:30am 9.2 NW 7 11 1014.5 - 0.0 - - - - - - -
06/04:00am 9.5 WNW 7 12 1014.6 - 0.0 - - - - - - -
06/03:30am 9.6 WNW 6 9 1014.9 - 0.0 - - - - - - -
06/03:00am 9.9 WNW 6 10 1015.2 - 0.0 - - - - - - -
06/02:30am 10.0 WNW 6 11 1015.3 - 0.0 - - - - - - -
06/02:00am 10.0 W 5 9 1015.6 - 0.0 - - - - - - -
06/01:30am 10.7 WNW 5 9 1015.7 - 0.0 - - - - - - -
06/01:00am 10.6 WNW 6 9 1016.0 - 0.0 - - - - - - -
06/12:30am 11.3 WNW 6 9 1016.2 - 0.0 - - - - - - -
06/12:00am 10.8 WNW 5 7 1016.5 - 0.0 - - - - - - -
 
Date/Time
EST
Temp

°C
Wind Pressure Rain
since 9am
mm
Weather Cloud Vis
km
Sea
Height
m
Swell
Dir
 
Speed
knots
Gust
knots
hPa Trend Height
m
Period
s
Dir
05/11:30pm 11.3 WNW 6 8 1016.5 - 0.0 - - - - - - -
05/11:00pm 10.0 NW 2 4 1016.8 - 0.0 - - - - - - -
05/10:30pm 11.2 NW 3 6 1016.7 - 0.0 - - - - - - -
05/10:00pm 11.7 N 3 6 1016.7 - 0.0 - - - - - - -
05/09:30pm 12.1 WNW 4 8 1016.8 - 0.0 - - - - - - -
05/09:00pm 12.6 WNW 6 10 1016.9 - 0.0 - - - - - - -
05/08:30pm 12.1 NW 5 8 1017.1 - 0.0 - - - - - - -
05/08:00pm 11.1 NNW 3 6 1017.2 - 0.0 - - - - - - -
05/07:30pm 11.0 NW 1 2 1017.0 - 0.0 - - - - - - -
05/07:00pm 12.0 WNW 1 3 1017.0 - 0.0 - - - - - - -
05/06:30pm 12.7 NW 2 7 1017.1 - 0.0 - - - - - - -
05/06:00pm 12.4 NW 1 3 1016.9 - 0.0 - - - - - - -
05/05:30pm 14.0 NNW 4 7 1016.6 - 0.0 - - - - - - -
05/05:00pm 14.6 NNW 4 6 1016.5 - 0.0 - - - - - - -
05/04:30pm 15.5 NNW 4 6 1016.7 - 0.0 - - - - - - -
05/04:00pm 16.3 N 4 8 1016.4 - 0.0 - - - - - - -
05/03:30pm 16.0 NNW 4 7 1016.4 - 0.0 - - - - - - -
05/03:00pm 16.7 N 3 7 1016.6 - 0.0 - - - - - - -
05/02:30pm 16.4 N 6 10 1016.7 - 0.0 - - - - - - -
05/02:00pm 16.4 NNE 4 7 1017.0 - 0.0 - - - - - - -
05/01:30pm 15.6 NNE 5 8 1017.3 - 0.0 - - - - - - -
05/01:00pm 15.5 NNE 4 5 1017.6 - 0.0 - - - - - - -
05/12:30pm 14.8 N 4 5 1018.1 - 0.0 - - - - - - -
05/12:00pm 15.7 NE 3 4 1018.8 - 0.0 - - - - - - -
05/11:30am 15.0 SE 1 3 1019.6 - 0.0 - - - - - - -
05/11:00am 14.5 SSE 3 5 1020.1 - 0.0 - - - - - - -
05/10:30am 14.5 SSE 3 4 1020.3 - 0.0 - - - - - - -
05/10:00am 15.2 NNW 1 2 1020.6 - 0.0 - - - - - - -
05/09:30am 14.7 CALM 0 1 1020.6 - 0.0 - - - - - - -
05/09:00am 13.4 CALM 0 0 1020.6 - 0.0 - - - - - - -
05/08:30am 11.4 CALM 0 0 1020.7 - 0.0 - - - - - - -
05/08:00am 8.8 NW 1 2 1020.7 - 0.0 - - - - - - -
05/07:30am 7.7 WNW 2 3 1020.6 - 0.0 - - - - - - -
05/07:00am 7.3 NW 2 2 1020.3 - 0.0 - - - - - - -
05/06:30am 7.5 NW 1 1 1020.0 - 0.0 - - - - - - -
05/06:00am 7.5 CALM 0 0 1019.9 - 0.0 - - - - - - -
05/05:30am 7.1 CALM 0 0 1019.7 - 0.0 - - - - - - -
05/05:00am 6.6 CALM 0 0 1019.7 - 0.0 - - - - - - -
05/04:30am 7.0 CALM 0 0 1019.7 - 0.0 - - - - - - -
05/04:00am 7.4 WNW 3 5 1019.8 - 0.0 - - - - - - -
05/03:30am 7.4 NW 3 4 1019.9 - 0.0 - - - - - - -
05/03:00am 7.6 CALM 0 0 1019.9 - 0.0 - - - - - - -
05/02:30am 7.7 NW 2 4 1020.1 - 0.0 - - - - - - -
05/02:00am 7.5 NW 2 3 1020.2 - 0.0 - - - - - - -
05/01:30am 7.2 NNW 2 4 1020.4 - 0.0 - - - - - - -
05/01:00am 7.8 CALM 0 0 1020.1 - 0.0 - - - - - - -
05/12:30am 8.2 CALM 0 0 1020.3 - 0.0 - - - - - - -
05/12:00am 9.2 WNW 3 4 1020.5 - 0.0 - - - - - - -
 
Date/Time
EST
Temp

°C
Wind Pressure Rain
since 9am
mm
Weather Cloud Vis
km
Sea
Height
m
Swell
Dir
 
Speed
knots
Gust
knots
hPa Trend Height
m
Period
s
Dir
04/11:30pm 9.6 WNW 4 5 1020.6 - 0.0 - - - - - - -
04/11:00pm 9.6 WNW 4 7 1020.6 - 0.0 - - - - - - -
04/10:30pm 9.7 WNW 4 6 1020.6 - 0.0 - - - - - - -
04/10:00pm 9.7 WNW 4 6 1020.8 - 0.0 - - - - - - -
04/09:30pm 9.5 WNW 4 6 1020.8 - 0.0 - - - - - - -
04/09:00pm 9.9 WNW 4 7 1020.8 - 0.0 - - - - - - -
04/08:30pm 9.5 NW 5 7 1020.8 - 0.0 - - - - - - -
04/08:00pm 9.0 NW 4 5 1020.8 - 0.0 - - - - - - -
04/07:30pm 9.1 NW 4 5 1020.9 - 0.0 - - - - - - -
04/07:00pm 8.7 NNW 4 5 1020.8 - 0.0 - - - - - - -
04/06:30pm 8.5 NNW 3 3 1020.7 - 0.0 - - - - - - -
04/06:00pm 10.0 NW 2 3 1020.6 - 0.0 - - - - - - -
04/05:30pm 10.5 NW 2 3 1020.3 - 0.0 - - - - - - -
04/05:00pm 10.7 CALM 0 0 1020.1 - 0.0 - - - - - - -
04/04:30pm 12.9 CALM 0 0 1020.1 - 0.0 - - - - - - -
04/04:00pm 13.8 WNW 1 3 1020.2 - 0.0 - - - - - - -
04/03:30pm 14.1 W 3 5 1020.0 - 0.0 - - - - - - -
04/03:00pm 14.4 WSW 3 6 1020.0 - 0.0 - - - - - - -
04/02:30pm 14.5 WSW 5 7 1019.9 - 0.0 - - - - - - -
04/02:00pm 14.6 W 3 7 1020.0 - 0.0 - - - - - - -
04/01:30pm 13.6 WNW 5 9 1020.1 - 0.0 - - - - - - -
04/01:00pm 12.2 W 4 7 1020.4 - 0.0 - - - - - - -
04/12:30pm 11.8 W 4 8 1020.8 - 0.0 - - - - - - -
04/12:00pm 11.9 W 5 8 1020.7 - 0.0 - - - - - - -
04/11:30am 11.8 W 5 9 1021.8 - 0.0 - - - - - - -
04/11:00am 11.4 W 4 7 1021.9 - 0.0 - - - - - - -
04/10:30am 10.3 W 4 8 1022.1 - 0.0 - - - - - - -
04/10:00am 10.7 W 5 8 1022.1 - 0.0 - - - - - - -
04/09:30am 10.1 W 5 8 1022.1 - 0.0 - - - - - - -
04/09:00am 9.7 W 4 8 1022.0 - 0.0 - - - - - - -
04/08:30am 7.3 W 4 6 1022.1 - 0.0 - - - - - - -
04/08:00am 7.3 WNW 4 7 1021.8 - 0.0 - - - - - - -
04/07:30am 6.2 W 4 7 1021.7 - 0.0 - - - - - - -
04/07:00am 6.5 WNW 3 6 1021.6 - 0.0 - - - - - - -
04/06:30am 6.7 W 6 10 1021.4 - 0.0 - - - - - - -
04/06:00am 6.5 W 6 12 1021.1 - 0.0 - - - - - - -
04/05:30am 6.5 WNW 6 12 1020.8 - 0.0 - - - - - - -
04/05:00am 5.5 NNW 6 9 1020.5 - 0.0 - - - - - - -
04/04:30am 6.4 NW 4 6 1020.8 - 0.0 - - - - - - -
04/04:00am 5.8 WNW 3 4 1021.0 - 0.0 - - - - - - -
04/03:30am 6.0 WNW 3 5 1021.6 - 0.0 - - - - - - -
04/03:00am 6.9 WNW 5 7 1021.8 - 0.0 - - - - - - -
04/02:30am 6.2 WNW 3 5 1022.4 - 0.0 - - - - - - -

Other Formats:

Comma delimited format used in spreadsheet applications
http://www.bom.gov.au/fwo/IDN60701/IDN60701.94938.axf

JavaScript Object Notation format (JSON) in row-major order
http://www.bom.gov.au/fwo/IDN60701/IDN60701.94938.json